Time;durP1;ratioP1;P1;durP2;ratioP2;P2;SDS_P1;SDS_P2;PMS_P1;PMS_P2;Temp;Humidity;BMP_temperature;BMP_pressure;BME280_temperature;BME280_humidity;BME280_pressure;Samples;Min_cycle;Max_cycle;Signal;HPM_P1;HPM_P2
2023/11/01 00:01:54;;;;;;;2.85;1.58;;;14.00;99.90;;;;;;4127245;28;20574;-61
2023/11/01 00:03:55;;;;;;;3.87;2.00;;;14.00;99.90;;;;;;4128285;28;20034;-60
2023/11/01 00:05:57;;;;;;;5.63;3.00;;;13.80;99.90;;;;;;4127488;28;20042;-60
2023/11/01 00:07:58;;;;;;;5.60;2.77;;;13.60;99.90;;;;;;4128419;28;20085;-61
2023/11/01 00:09:59;;;;;;;4.72;2.80;;;13.50;99.90;;;;;;4127203;28;20038;-61
2023/11/01 00:12:00;;;;;;;3.10;2.42;;;13.40;99.90;;;;;;4127803;28;20031;-61
2023/11/01 00:14:02;;;;;;;3.43;3.13;;;13.40;99.90;;;;;;4127222;28;20046;-61
2023/11/01 00:16:04;;;;;;;4.90;2.90;;;13.40;99.90;;;;;;4127649;28;20030;-61
2023/11/01 00:18:05;;;;;;;5.77;3.03;;;13.30;99.90;;;;;;4126730;28;20120;-61
2023/11/01 00:20:07;;;;;;;7.20;3.80;;;13.20;99.90;;;;;;4128044;28;20038;-61
2023/11/01 00:22:09;;;;;;;9.43;4.40;;;13.00;99.90;;;;;;4127211;28;20434;-60
2023/11/01 00:24:10;;;;;;;8.73;4.07;;;12.80;99.90;;;;;;4128026;28;20399;-60
2023/11/01 00:26:11;;;;;;;9.03;4.80;;;12.70;99.90;;;;;;4127861;28;20034;-62
2023/11/01 00:28:12;;;;;;;7.27;4.43;;;12.70;99.90;;;;;;4127542;28;20097;-62
2023/11/01 00:30:14;;;;;;;8.00;4.90;;;12.60;99.90;;;;;;4127838;28;20081;-60
2023/11/01 00:32:16;;;;;;;8.53;5.50;;;12.60;99.90;;;;;;4126812;28;20042;-61
2023/11/01 00:34:18;;;;;;;7.77;5.07;;;12.50;99.90;;;;;;4127712;28;20030;-59
2023/11/01 00:36:19;;;;;;;7.10;5.07;;;12.50;99.90;;;;;;4126623;28;20030;-59
2023/11/01 00:38:23;;;;;;;6.13;4.53;;;12.50;99.90;;;;;;4128019;28;20112;-60
2023/11/01 00:40:24;;;;;;;10.00;5.50;;;12.40;99.90;;;;;;4126011;28;20561;-60
2023/11/01 00:42:26;;;;;;;10.93;5.20;;;12.50;99.90;;;;;;4127514;28;20125;-61
2023/11/01 00:44:27;;;;;;;8.83;5.33;;;12.40;99.90;;;;;;4114027;28;20112;-61
2023/11/01 00:46:28;;;;;;;8.13;6.07;;;12.50;99.90;;;;;;4130909;28;20050;-61
2023/11/01 00:48:30;;;;;;;10.03;6.73;;;12.50;99.90;;;;;;4129958;28;20610;-60
2023/11/01 00:50:31;;;;;;;8.27;6.17;;;12.60;99.90;;;;;;4130777;28;20081;-62
2023/11/01 00:52:32;;;;;;;8.57;5.00;;;12.60;99.90;;;;;;4129901;28;20518;-62
2023/11/01 00:54:33;;;;;;;6.97;4.43;;;12.60;99.90;;;;;;4130900;28;20100;-63
2023/11/01 00:56:35;;;;;;;8.40;4.47;;;12.70;99.90;;;;;;4130352;28;20380;-62
2023/11/01 00:58:36;;;;;;;8.20;6.87;;;12.70;99.90;;;;;;4130152;28;20473;-61
2023/11/01 01:00:37;;;;;;;6.77;4.00;;;12.70;99.90;;;;;;4130148;28;20481;-63
2023/11/01 01:02:39;;;;;;;3.40;3.00;;;12.70;99.90;;;;;;4129766;28;20034;-60
2023/11/01 01:04:45;;;;;;;5.40;3.33;;;12.70;99.90;;;;;;4130607;28;20046;-62
2023/11/01 01:06:46;;;;;;;6.73;3.23;;;12.70;99.90;;;;;;4129458;28;20042;-60
2023/11/01 01:08:47;;;;;;;7.03;5.07;;;12.70;99.90;;;;;;4130594;28;20031;-60
2023/11/01 01:10:48;;;;;;;5.10;4.30;;;12.70;99.90;;;;;;4129514;28;20043;-63
2023/11/01 01:12:49;;;;;;;5.43;3.73;;;12.70;99.90;;;;;;4128348;28;20562;-60
2023/11/01 01:14:50;;;;;;;6.03;2.53;;;12.70;99.90;;;;;;4129546;28;20430;-57
2023/11/01 01:16:52;;;;;;;3.73;2.43;;;12.70;99.90;;;;;;4129962;28;20554;-61
2023/11/01 01:18:53;;;;;;;3.77;2.27;;;12.70;99.90;;;;;;4129080;28;20112;-62
2023/11/01 01:20:55;;;;;;;2.47;2.20;;;12.70;99.90;;;;;;4130771;28;20084;-62
2023/11/01 01:22:56;;;;;;;4.53;2.03;;;12.70;99.90;;;;;;4128735;28;20038;-58
2023/11/01 01:24:57;;;;;;;5.00;1.87;;;12.60;99.90;;;;;;4130353;28;20081;-62
2023/11/01 01:26:58;;;;;;;4.43;2.20;;;12.60;99.90;;;;;;4129558;28;20042;-61
2023/11/01 01:28:59;;;;;;;2.77;1.90;;;12.60;99.90;;;;;;4129799;28;20085;-63
2023/11/01 01:31:00;;;;;;;3.00;1.80;;;12.60;99.90;;;;;;4129433;28;20080;-60
2023/11/01 01:33:01;;;;;;;4.27;2.30;;;12.60;99.90;;;;;;4129609;28;20533;-61
2023/11/01 01:35:03;;;;;;;3.57;2.17;;;12.60;99.90;;;;;;4129899;28;20042;-63
2023/11/01 01:37:04;;;;;;;2.50;2.30;;;12.60;99.90;;;;;;4129168;28;20054;-61
2023/11/01 01:39:05;;;;;;;3.67;2.70;;;12.60;99.90;;;;;;4129685;28;20030;-61
2023/11/01 01:41:06;;;;;;;3.50;2.30;;;12.60;99.90;;;;;;4128826;28;20088;-62
2023/11/01 01:43:15;;;;;;;4.93;2.50;;;12.60;99.90;;;;;;4128382;28;20557;-61
2023/11/01 01:45:16;;;;;;;4.30;2.83;;;12.60;99.90;;;;;;4128520;28;20050;-61
2023/11/01 01:47:19;;;;;;;3.27;2.70;;;12.50;99.90;;;;;;4129723;28;20058;-60
2023/11/01 01:49:20;;;;;;;2.87;1.90;;;12.40;99.90;;;;;;4128625;28;20615;-61
2023/11/01 01:51:21;;;;;;;4.00;3.07;;;12.40;99.90;;;;;;4129768;28;20034;-60
2023/11/01 01:53:24;;;;;;;4.83;2.20;;;12.40;99.90;;;;;;4128744;28;20022;-61
2023/11/01 01:55:25;;;;;;;4.13;2.10;;;12.30;99.90;;;;;;4129113;28;20079;-60
2023/11/01 01:57:27;;;;;;;3.40;3.10;;;12.30;99.90;;;;;;4129230;28;20108;-60
2023/11/01 01:59:29;;;;;;;5.07;3.23;;;12.30;99.90;;;;;;4128647;28;20054;-61
2023/11/01 02:01:32;;;;;;;7.17;4.17;;;12.30;99.90;;;;;;4128311;28;20543;-61
2023/11/01 02:03:36;;;;;;;4.90;3.50;;;12.30;99.90;;;;;;4113359;28;20116;-61
2023/11/01 02:05:37;;;;;;;3.67;2.20;;;12.30;99.90;;;;;;4127781;28;20454;-61
2023/11/01 02:07:38;;;;;;;5.03;2.70;;;12.30;99.90;;;;;;4128413;28;20073;-61
2023/11/01 02:09:39;;;;;;;4.63;3.13;;;12.30;99.90;;;;;;4127938;28;20076;-61
2023/11/01 02:11:44;;;;;;;3.30;2.50;;;12.40;99.90;;;;;;4128511;28;20046;-61
2023/11/01 02:13:46;;;;;;;3.77;2.50;;;12.30;99.90;;;;;;4129287;28;20034;-60
2023/11/01 02:15:48;;;;;;;5.77;3.37;;;12.30;99.90;;;;;;4128760;28;20035;-62
2023/11/01 02:17:49;;;;;;;4.37;3.00;;;12.30;99.90;;;;;;4129656;28;20062;-61
2023/11/01 02:19:51;;;;;;;5.77;3.60;;;12.30;99.90;;;;;;4128311;28;20096;-60
2023/11/01 02:21:52;;;;;;;4.33;3.47;;;12.20;99.90;;;;;;4129586;28;20154;-60
2023/11/01 02:23:55;;;;;;;6.23;4.77;;;12.20;99.90;;;;;;4128608;28;20124;-61
2023/11/01 02:25:56;;;;;;;5.43;4.90;;;12.10;99.90;;;;;;4129648;28;20050;-60
2023/11/01 02:27:57;;;;;;;7.73;4.30;;;12.00;99.90;;;;;;4128954;28;20034;-61
2023/11/01 02:29:58;;;;;;;6.77;4.43;;;11.90;99.90;;;;;;4128229;28;20526;-61
2023/11/01 02:31:59;;;;;;;10.07;5.03;;;11.80;99.90;;;;;;4128082;28;20120;-59
2023/11/01 02:34:00;;;;;;;6.47;4.47;;;11.80;99.90;;;;;;4129136;28;20038;-57
2023/11/01 02:36:02;;;;;;;6.30;5.10;;;11.80;99.90;;;;;;4128124;28;20384;-61
2023/11/01 02:38:04;;;;;;;7.03;4.77;;;11.80;99.90;;;;;;4128732;28;20081;-62
2023/11/01 02:40:06;;;;;;;10.43;5.23;;;11.70;99.90;;;;;;4128710;28;20073;-61
2023/11/01 02:42:07;;;;;;;11.10;4.50;;;11.70;99.90;;;;;;4127911;28;20486;-60
2023/11/01 02:44:08;;;;;;;7.97;5.23;;;11.60;99.90;;;;;;4128478;28;20042;-61
2023/11/01 02:46:09;;;;;;;7.77;5.23;;;11.50;99.90;;;;;;4127600;28;20042;-60
2023/11/01 02:48:11;;;;;;;8.67;4.97;;;11.40;99.90;;;;;;4128469;28;20046;-61
2023/11/01 02:50:16;;;;;;;5.17;4.67;;;11.40;99.90;;;;;;4126727;28;20042;-60
2023/11/01 02:52:17;;;;;;;7.70;5.47;;;11.30;99.90;;;;;;4127644;28;20034;-62
2023/11/01 02:54:18;;;;;;;8.27;5.57;;;11.30;99.90;;;;;;4127085;28;20050;-63
2023/11/01 02:56:22;;;;;;;6.97;5.70;;;11.40;99.90;;;;;;4129021;28;20093;-62
2023/11/01 02:58:23;;;;;;;9.23;5.40;;;11.40;99.90;;;;;;4127496;28;20077;-63
2023/11/01 03:00:25;;;;;;;5.93;5.33;;;11.40;99.90;;;;;;4128307;28;20554;-61
2023/11/01 03:02:26;;;;;;;6.93;5.33;;;11.40;99.90;;;;;;4127643;28;20031;-59
2023/11/01 03:04:27;;;;;;;6.07;5.40;;;11.50;99.90;;;;;;4128798;28;20557;-59
2023/11/01 03:06:29;;;;;;;6.00;5.03;;;11.50;99.90;;;;;;4127691;28;20556;-59
2023/11/01 03:08:30;;;;;;;10.10;5.83;;;11.50;99.90;;;;;;4127284;28;20030;-60
2023/11/01 03:10:31;;;;;;;9.63;5.70;;;11.50;99.90;;;;;;4128282;28;20022;-60
2023/11/01 03:12:32;;;;;;;10.30;5.90;;;11.50;99.90;;;;;;4128033;28;20545;-59
2023/11/01 03:14:33;;;;;;;7.73;5.23;;;11.50;99.90;;;;;;4128571;28;20558;-60
2023/11/01 03:16:36;;;;;;;12.17;7.20;;;11.50;99.90;;;;;;4127431;28;20101;-59
2023/11/01 03:18:37;;;;;;;10.20;6.70;;;11.50;99.90;;;;;;4128643;28;20108;-62
2023/11/01 03:20:38;;;;;;;10.27;7.40;;;11.50;99.90;;;;;;4127117;28;20097;-61
2023/11/01 03:22:39;;;;;;;8.17;7.30;;;11.50;99.90;;;;;;4128535;28;20080;-60
2023/11/01 03:24:40;;;;;;;9.13;6.67;;;11.50;99.90;;;;;;4127917;28;20089;-63
2023/11/01 03:26:42;;;;;;;10.30;6.07;;;11.50;99.90;;;;;;4128763;28;20038;-62
2023/11/01 03:28:45;;;;;;;7.27;5.67;;;11.50;99.90;;;;;;4127780;28;20537;-57
2023/11/01 03:30:46;;;;;;;7.93;5.67;;;11.50;99.90;;;;;;4128695;28;20081;-61
2023/11/01 03:32:47;;;;;;;7.77;6.20;;;11.50;99.90;;;;;;4127347;28;20049;-62
2023/11/01 03:34:48;;;;;;;8.73;5.80;;;11.50;99.90;;;;;;4128555;28;20034;-60
2023/11/01 03:36:50;;;;;;;20.17;6.80;;;11.50;99.90;;;;;;4127007;28;20458;-60
2023/11/01 03:38:51;;;;;;;7.00;5.20;;;11.50;99.90;;;;;;4126323;28;20054;-59
2023/11/01 03:40:52;;;;;;;9.30;6.10;;;11.50;99.90;;;;;;4142343;28;20038;-61
2023/11/01 03:42:53;;;;;;;9.23;5.60;;;11.60;99.90;;;;;;4127569;28;20030;-59
2023/11/01 03:44:54;;;;;;;6.70;5.93;;;11.60;99.90;;;;;;4127992;28;20038;-59
2023/11/01 03:46:55;;;;;;;7.00;5.73;;;11.60;99.90;;;;;;4126803;28;20080;-55
2023/11/01 03:48:57;;;;;;;10.37;5.97;;;11.60;99.90;;;;;;4128285;28;20050;-62
2023/11/01 03:50:58;;;;;;;6.13;5.33;;;11.60;99.90;;;;;;4127330;28;20108;-62
2023/11/01 03:52:59;;;;;;;8.83;5.70;;;11.60;99.90;;;;;;4128194;28;20046;-61
2023/11/01 03:55:01;;;;;;;8.50;5.53;;;11.60;99.90;;;;;;4127443;28;20089;-62
2023/11/01 03:57:02;;;;;;;7.00;5.43;;;11.60;99.90;;;;;;4128828;28;20050;-61
2023/11/01 03:59:04;;;;;;;6.00;4.50;;;11.60;99.90;;;;;;4127089;28;20141;-62
2023/11/01 04:01:05;;;;;;;7.27;5.57;;;11.60;99.90;;;;;;4127633;28;20368;-59
2023/11/01 04:03:07;;;;;;;6.33;5.07;;;11.60;99.90;;;;;;4125484;28;20042;-60
2023/11/01 04:05:08;;;;;;;6.63;4.73;;;11.60;99.90;;;;;;4128220;28;20313;-62
2023/11/01 04:07:09;;;;;;;6.47;4.37;;;11.60;99.90;;;;;;4127324;28;20109;-60
2023/11/01 04:09:10;;;;;;;6.00;3.90;;;11.60;99.90;;;;;;4127840;28;20026;-61
2023/11/01 04:11:12;;;;;;;7.03;3.53;;;11.50;99.90;;;;;;4127713;28;20541;-62
2023/11/01 04:13:13;;;;;;;5.47;3.20;;;11.50;99.90;;;;;;4127395;28;20557;-61
2023/11/01 04:15:16;;;;;;;7.73;4.03;;;11.50;99.90;;;;;;4128044;28;20034;-61
2023/11/01 04:17:18;;;;;;;4.37;3.00;;;11.40;99.90;;;;;;4126618;28;20502;-60
2023/11/01 04:19:19;;;;;;;5.90;3.30;;;11.50;99.90;;;;;;4129499;28;20538;-62
2023/11/01 04:21:21;;;;;;;4.43;2.97;;;11.50;99.90;;;;;;4130087;28;20418;-62
2023/11/01 04:23:22;;;;;;;3.37;2.57;;;11.50;99.90;;;;;;4131537;28;20050;-62
2023/11/01 04:25:23;;;;;;;2.57;2.37;;;11.60;99.90;;;;;;4129729;28;20038;-60
2023/11/01 04:27:24;;;;;;;3.00;2.00;;;11.60;99.90;;;;;;4131807;28;20541;-60
2023/11/01 04:29:26;;;;;;;3.83;2.00;;;11.60;99.90;;;;;;4130186;28;20454;-59
2023/11/01 04:31:27;;;;;;;3.27;2.00;;;11.60;99.90;;;;;;4130706;28;20038;-60
2023/11/01 04:33:28;;;;;;;2.83;2.13;;;11.70;99.90;;;;;;4130127;28;20402;-59
2023/11/01 04:35:29;;;;;;;3.93;2.67;;;11.60;99.90;;;;;;4131430;28;20047;-63
2023/11/01 04:37:31;;;;;;;3.50;2.23;;;11.70;99.90;;;;;;4129581;28;20046;-61
2023/11/01 04:39:32;;;;;;;3.47;1.93;;;11.70;99.90;;;;;;4130416;28;20042;-61
2023/11/01 04:41:33;;;;;;;5.23;2.67;;;11.70;99.90;;;;;;4130097;28;20030;-62
2023/11/01 04:43:35;;;;;;;2.67;1.70;;;11.70;99.90;;;;;;4130158;28;20030;-61
2023/11/01 04:45:36;;;;;;;1.80;1.30;;;11.70;99.90;;;;;;4130088;28;20038;-62
2023/11/01 04:47:42;;;;;;;1.87;1.17;;;11.70;99.90;;;;;;4129782;28;20088;-61
2023/11/01 04:49:43;;;;;;;2.37;1.23;;;11.70;99.90;;;;;;4130658;28;20093;-61
2023/11/01 04:51:44;;;;;;;1.57;1.13;;;11.70;99.90;;;;;;4129973;28;20054;-61
2023/11/01 04:53:46;;;;;;;2.00;0.93;;;11.70;99.90;;;;;;4130451;28;20050;-61
2023/11/01 04:55:47;;;;;;;1.83;1.30;;;11.70;99.90;;;;;;4129574;28;20045;-62
2023/11/01 04:57:50;;;;;;;3.03;1.40;;;11.60;99.90;;;;;;4122672;28;20565;-60
2023/11/01 04:59:52;;;;;;;3.63;1.30;;;11.50;99.90;;;;;;4113508;28;20121;-60
2023/11/01 05:01:53;;;;;;;2.03;1.60;;;11.50;99.90;;;;;;4128040;28;20124;-61
2023/11/01 05:03:54;;;;;;;1.87;1.40;;;11.40;99.90;;;;;;4129359;28;20553;-61
2023/11/01 05:05:55;;;;;;;1.63;1.13;;;11.30;99.90;;;;;;4130006;28;20034;-63
2023/11/01 05:07:56;;;;;;;2.63;1.27;;;11.30;99.90;;;;;;4129198;28;20038;-61
2023/11/01 05:09:57;;;;;;;11.40;1.60;;;11.30;99.90;;;;;;4130478;28;20088;-61
2023/11/01 05:11:59;;;;;;;2.10;0.60;;;11.20;99.90;;;;;;4129539;28;20093;-62
2023/11/01 05:14:00;;;;;;;0.80;0.50;;;11.20;99.90;;;;;;4130158;28;20038;-64
2023/11/01 05:16:01;;;;;;;1.87;1.23;;;11.20;99.90;;;;;;4129389;28;20039;-60
2023/11/01 05:18:03;;;;;;;2.13;0.97;;;11.20;99.90;;;;;;4128172;28;20113;-63
2023/11/01 05:20:04;;;;;;;1.10;0.73;;;11.20;99.90;;;;;;4129945;28;20088;-62
2023/11/01 05:22:06;;;;;;;2.67;0.40;;;11.10;99.90;;;;;;4129061;28;20038;-60
2023/11/01 05:24:07;;;;;;;1.57;0.43;;;11.10;99.90;;;;;;4130086;28;20046;-60
2023/11/01 05:26:15;;;;;;;0.57;0.43;;;11.10;99.90;;;;;;4128867;28;20426;-61
2023/11/01 05:28:16;;;;;;;1.03;0.17;;;11.00;99.90;;;;;;4129820;28;20074;-60
2023/11/01 05:30:18;;;;;;;0.40;0.30;;;11.00;99.90;;;;;;4127692;28;20070;-61
2023/11/01 05:32:19;;;;;;;1.00;0.30;;;11.00;99.90;;;;;;4128708;28;21677;-61
2023/11/01 05:34:20;;;;;;;1.50;0.30;;;11.00;99.90;;;;;;4128460;28;20131;-61
2023/11/01 05:36:21;;;;;;;0.50;0.20;;;10.90;99.90;;;;;;4129426;28;20097;-62
2023/11/01 05:38:25;;;;;;;0.20;0.20;;;10.90;99.90;;;;;;4126666;28;20042;-63
2023/11/01 05:40:26;;;;;;;0.83;0.10;;;10.90;99.90;;;;;;4129608;28;20034;-62
2023/11/01 05:42:27;;;;;;;0.97;0.30;;;11.00;99.90;;;;;;4128505;28;20036;-62
2023/11/01 05:44:29;;;;;;;1.03;0.20;;;11.00;99.90;;;;;;4129268;28;20038;-61
2023/11/01 05:46:30;;;;;;;1.47;0.50;;;11.00;99.90;;;;;;4127762;28;20022;-61
2023/11/01 05:48:35;;;;;;;2.17;0.70;;;11.00;99.90;;;;;;4129272;28;20085;-63
2023/11/01 05:50:36;;;;;;;1.73;0.30;;;11.00;99.90;;;;;;4126994;28;20325;-61
2023/11/01 05:52:38;;;;;;;1.40;0.20;;;11.00;99.90;;;;;;4127185;28;20027;-63
2023/11/01 05:54:39;;;;;;;1.40;0.20;;;11.10;99.90;;;;;;4128870;28;20562;-62
2023/11/01 05:56:41;;;;;;;1.43;0.63;;;11.40;99.90;;;;;;4112959;28;20066;-61
2023/11/01 05:58:42;;;;;;;1.07;0.20;;;11.90;99.90;;;;;;4114262;28;20043;-62
2023/11/01 06:00:44;;;;;;;0.87;0.20;;;12.40;99.90;;;;;;4112324;28;20026;-61
2023/11/01 06:02:45;;;;;;;0.67;0.33;;;12.80;99.90;;;;;;4113486;28;20031;-62
2023/11/01 06:04:47;;;;;;;0.60;0.43;;;13.00;99.90;;;;;;4112449;28;20075;-62
2023/11/01 06:06:48;;;;;;;0.40;0.10;;;13.40;99.90;;;;;;4113642;28;20097;-60
2023/11/01 06:08:50;;;;;;;1.40;0.20;;;13.70;99.90;;;;;;4112363;28;20050;-62
2023/11/01 06:10:53;;;;;;;0.90;0.20;;;13.90;99.90;;;;;;4113444;28;20082;-62
2023/11/01 06:12:54;;;;;;;0.47;0.20;;;14.00;99.90;;;;;;4128344;28;20152;-60
2023/11/01 06:14:55;;;;;;;1.02;0.32;;;13.80;99.90;;;;;;4129688;28;20030;-62
2023/11/01 06:16:56;;;;;;;0.82;0.40;;;13.60;99.90;;;;;;4127629;28;20978;-62
2023/11/01 06:18:58;;;;;;;0.73;0.30;;;13.30;99.90;;;;;;4128780;28;20192;-60
2023/11/01 06:20:59;;;;;;;0.63;0.40;;;12.90;99.90;;;;;;4128904;28;20857;-60
2023/11/01 06:23:04;;;;;;;0.63;0.40;;;13.10;99.90;;;;;;4130357;28;20042;-61
2023/11/01 06:25:08;;;;;;;0.43;0.40;;;13.50;99.90;;;;;;4145207;28;20033;-62
2023/11/01 06:27:11;;;;;;;1.93;0.40;;;13.80;99.90;;;;;;4144412;28;20381;-60
2023/11/01 06:29:12;;;;;;;0.93;0.43;;;14.20;99.90;;;;;;4140396;28;20046;-61
2023/11/01 06:31:14;;;;;;;0.98;0.20;;;14.40;99.90;;;;;;4127582;28;20490;-60
2023/11/01 06:33:15;;;;;;;1.70;0.65;;;14.70;99.90;;;;;;4129218;28;20031;-61
2023/11/01 06:35:16;;;;;;;0.50;0.30;;;15.00;99.90;;;;;;4127741;28;20022;-62
2023/11/01 06:37:17;;;;;;;0.65;0.20;;;15.20;99.90;;;;;;4137250;28;20049;-61
2023/11/01 06:39:19;;;;;;;0.50;0.40;;;15.30;99.90;;;;;;4143964;28;20050;-60
2023/11/01 06:41:20;;;;;;;0.82;0.52;;;15.60;99.90;;;;;;4136523;28;20047;-61
2023/11/01 06:43:21;;;;;;;3.20;0.52;;;15.60;99.90;;;;;;4127412;28;20038;-63
2023/11/01 06:45:23;;;;;;;0.20;0.20;;;15.70;99.90;;;;;;4128448;28;20042;-61
2023/11/01 06:47:24;;;;;;;1.70;0.40;;;15.80;99.90;;;;;;4127887;28;20014;-62
2023/11/01 06:49:26;;;;;;;0.52;0.30;;;15.90;99.90;;;;;;4128755;28;20085;-62
2023/11/01 06:51:27;;;;;;;2.90;0.80;;;15.90;99.90;;;;;;4128188;28;20038;-62
2023/11/01 06:53:28;;;;;;;1.15;0.73;;;15.80;99.90;;;;;;4128543;28;20490;-61
2023/11/01 06:55:29;;;;;;;0.60;0.35;;;15.80;99.90;;;;;;4128537;28;20046;-61
2023/11/01 06:57:30;;;;;;;1.58;0.88;;;15.90;99.90;;;;;;4127342;28;20120;-63
2023/11/01 06:59:32;;;;;;;1.73;0.75;;;15.80;99.90;;;;;;4128619;28;20077;-62
2023/11/01 07:01:35;;;;;;;1.65;0.80;;;15.50;99.90;;;;;;4126960;28;20030;-63
2023/11/01 07:03:36;;;;;;;18.95;6.53;;;15.30;99.90;;;;;;4128538;28;20104;-61
2023/11/01 07:05:37;;;;;;;8.45;4.30;;;15.30;99.90;;;;;;4127529;28;20652;-61
2023/11/01 07:07:39;;;;;;;3.58;2.10;;;15.40;99.90;;;;;;4128996;28;20543;-62
2023/11/01 07:09:40;;;;;;;4.68;1.45;;;15.60;99.90;;;;;;4127491;28;20034;-62
2023/11/01 07:11:41;;;;;;;3.65;1.50;;;15.60;99.90;;;;;;4128527;28;20034;-62
2023/11/01 07:13:43;;;;;;;1.95;1.10;;;15.90;99.90;;;;;;4127139;28;20042;-62
2023/11/01 07:15:44;;;;;;;15.43;8.18;;;16.00;99.90;;;;;;4128348;28;20042;-59
2023/11/01 07:17:45;;;;;;;7.05;4.22;;;16.30;99.90;;;;;;4127245;28;20101;-61
2023/11/01 07:19:46;;;;;;;6.15;2.88;;;16.40;99.90;;;;;;4128275;28;20566;-60
2023/11/01 07:21:48;;;;;;;3.30;1.83;;;16.90;99.90;;;;;;4127675;28;20027;-61
2023/11/01 07:23:49;;;;;;;1.90;0.68;;;16.80;99.90;;;;;;4128109;28;20549;-60
2023/11/01 07:25:50;;;;;;;1.60;0.50;;;16.80;99.90;;;;;;4127735;28;20056;-61
2023/11/01 07:27:51;;;;;;;0.40;0.40;;;16.60;99.90;;;;;;4127738;28;20097;-62
2023/11/01 07:29:52;;;;;;;1.85;0.40;;;16.30;99.90;;;;;;4127991;28;20513;-60
2023/11/01 07:31:53;;;;;;;0.77;0.57;;;16.20;99.90;;;;;;4123539;28;20038;-59
2023/11/01 07:33:54;;;;;;;1.50;0.52;;;16.20;99.90;;;;;;4112439;28;20051;-60
2023/11/01 07:35:56;;;;;;;1.58;0.32;;;16.00;99.90;;;;;;4111519;28;20035;-59
2023/11/01 07:37:57;;;;;;;2.35;0.35;;;15.90;99.90;;;;;;4112288;28;20102;-64
2023/11/01 07:39:59;;;;;;;1.08;0.35;;;15.80;99.90;;;;;;4111130;28;20093;-60
2023/11/01 07:42:00;;;;;;;0.95;0.20;;;15.70;99.90;;;;;;4112519;28;20059;-60
2023/11/01 07:44:01;;;;;;;1.55;0.25;;;15.80;99.90;;;;;;4111294;28;20042;-60
2023/11/01 07:46:02;;;;;;;1.13;0.68;;;15.70;99.90;;;;;;4127911;28;20054;-61
2023/11/01 07:48:04;;;;;;;0.70;0.40;;;15.50;99.90;;;;;;4127373;28;20434;-60
2023/11/01 07:50:07;;;;;;;1.38;0.73;;;15.50;99.90;;;;;;4128301;28;20454;-62
2023/11/01 07:52:09;;;;;;;1.02;0.25;;;15.70;99.90;;;;;;4127240;28;20026;-58
2023/11/01 07:54:10;;;;;;;0.88;0.45;;;15.70;99.90;;;;;;4129395;28;20379;-59
2023/11/01 07:56:11;;;;;;;0.30;0.20;;;15.60;99.90;;;;;;4131122;28;20027;-62
2023/11/01 07:58:12;;;;;;;1.65;0.30;;;15.50;99.90;;;;;;4130920;28;20450;-59
2023/11/01 08:00:14;;;;;;;2.05;0.40;;;15.70;99.90;;;;;;4131288;28;20129;-63
2023/11/01 08:02:15;;;;;;;2.78;0.40;;;15.90;99.90;;;;;;4118124;28;20514;-61
2023/11/01 08:04:17;;;;;;;1.75;0.30;;;16.00;99.90;;;;;;4129556;28;20447;-61
2023/11/01 08:06:18;;;;;;;2.15;0.10;;;15.80;99.90;;;;;;4129778;28;20100;-59
2023/11/01 08:08:19;;;;;;;2.47;0.20;;;15.70;99.90;;;;;;4130629;28;20088;-60
2023/11/01 08:10:21;;;;;;;0.55;0.20;;;15.70;99.90;;;;;;4128947;28;20089;-60
2023/11/01 08:12:22;;;;;;;1.05;0.57;;;15.60;99.90;;;;;;4131409;28;20034;-61
2023/11/01 08:14:23;;;;;;;0.70;0.30;;;15.70;99.90;;;;;;4129497;28;20072;-59
2023/11/01 08:16:25;;;;;;;0.45;0.30;;;15.70;99.90;;;;;;4129244;28;20426;-59
2023/11/01 08:18:28;;;;;;;2.08;0.50;;;15.50;99.90;;;;;;4129865;28;20403;-59
2023/11/01 08:20:30;;;;;;;1.17;0.30;;;15.50;99.90;;;;;;4131312;28;20050;-61
2023/11/01 08:22:31;;;;;;;0.55;0.22;;;15.60;99.90;;;;;;4130830;28;20034;-60
2023/11/01 08:24:32;;;;;;;1.10;0.40;;;15.50;99.90;;;;;;4131326;28;20541;-60
2023/11/01 08:26:33;;;;;;;1.25;0.60;;;15.60;99.90;;;;;;4130686;28;20446;-61
2023/11/01 08:28:34;;;;;;;0.43;0.20;;;15.60;99.90;;;;;;4130514;28;20533;-61
2023/11/01 08:30:36;;;;;;;0.85;0.50;;;15.40;99.90;;;;;;4130766;28;20085;-60
2023/11/01 08:32:38;;;;;;;0.55;0.30;;;15.40;99.90;;;;;;4130125;28;20034;-60
2023/11/01 08:34:39;;;;;;;1.27;0.20;;;15.30;99.90;;;;;;4131767;28;20592;-60
2023/11/01 08:36:40;;;;;;;0.30;0.20;;;15.30;99.90;;;;;;4130125;28;20545;-60
2023/11/01 08:38:42;;;;;;;0.40;0.20;;;15.30;99.90;;;;;;4130257;28;20038;-62
2023/11/01 08:40:43;;;;;;;1.75;0.40;;;15.40;99.90;;;;;;4128970;28;20525;-61
2023/11/01 08:42:44;;;;;;;1.08;0.50;;;15.40;99.90;;;;;;4131177;28;20085;-62
2023/11/01 08:44:45;;;;;;;0.55;0.30;;;15.30;99.90;;;;;;4130458;28;20026;-62
2023/11/01 08:46:46;;;;;;;0.60;0.30;;;15.10;99.90;;;;;;4122388;28;20097;-62
2023/11/01 08:48:49;;;;;;;0.52;0.32;;;15.10;99.90;;;;;;4113507;28;20039;-62
2023/11/01 08:50:50;;;;;;;1.98;0.30;;;15.10;99.90;;;;;;4119560;28;20101;-63
2023/11/01 08:52:51;;;;;;;2.08;0.35;;;15.00;99.90;;;;;;4130113;28;20427;-61
2023/11/01 08:54:52;;;;;;;0.50;0.30;;;15.00;99.90;;;;;;4130721;28;20026;-62
2023/11/01 08:56:54;;;;;;;0.38;0.25;;;15.00;99.90;;;;;;4130319;28;20030;-62
2023/11/01 08:58:56;;;;;;;2.28;0.50;;;15.10;99.90;;;;;;4130931;28;20051;-62
2023/11/01 09:00:57;;;;;;;1.27;0.43;;;15.20;99.90;;;;;;4130688;28;20582;-60
2023/11/01 09:02:59;;;;;;;0.45;0.45;;;15.10;99.90;;;;;;4129541;28;20030;-63
2023/11/01 09:05:00;;;;;;;1.15;0.30;;;14.90;99.90;;;;;;4129664;28;20038;-58
2023/11/01 09:07:01;;;;;;;0.70;0.43;;;15.00;99.90;;;;;;4129120;28;21435;-59
2023/11/01 09:09:03;;;;;;;0.40;0.25;;;14.90;99.90;;;;;;4131535;28;20034;-61
2023/11/01 09:11:04;;;;;;;2.65;0.50;;;14.90;99.90;;;;;;4129453;28;20450;-61
2023/11/01 09:13:06;;;;;;;0.30;0.20;;;14.90;99.90;;;;;;4130547;28;20085;-59
2023/11/01 09:15:07;;;;;;;0.60;0.40;;;14.80;99.90;;;;;;4129588;28;20084;-61
2023/11/01 09:17:08;;;;;;;1.13;0.30;;;14.80;99.90;;;;;;4130321;28;20104;-60
2023/11/01 09:19:09;;;;;;;3.63;0.30;;;14.80;99.90;;;;;;4128277;28;20050;-63
2023/11/01 09:21:11;;;;;;;1.08;0.30;;;14.80;99.90;;;;;;4130539;28;20050;-60
2023/11/01 09:23:12;;;;;;;0.85;0.30;;;14.80;99.90;;;;;;4129333;28;20120;-62
2023/11/01 09:25:13;;;;;;;2.13;0.40;;;14.70;99.90;;;;;;4130306;28;20092;-62
2023/11/01 09:27:14;;;;;;;2.40;0.60;;;14.60;99.90;;;;;;4129578;28;20046;-61
2023/11/01 09:29:16;;;;;;;1.67;0.82;;;14.60;99.90;;;;;;4130059;28;20109;-63
2023/11/01 09:31:17;;;;;;;1.17;0.63;;;14.60;99.90;;;;;;4128409;28;20042;-62
2023/11/01 09:33:18;;;;;;;1.20;0.68;;;14.50;99.90;;;;;;4139132;28;20514;-62
2023/11/01 09:35:20;;;;;;;3.22;1.15;;;14.50;99.90;;;;;;4146576;28;20045;-62
2023/11/01 09:37:21;;;;;;;3.80;0.90;;;14.60;99.90;;;;;;4135633;28;20435;-62
2023/11/01 09:39:23;;;;;;;0.82;0.70;;;14.60;99.90;;;;;;4130454;28;20038;-61
2023/11/01 09:41:28;;;;;;;5.07;1.30;;;14.60;99.90;;;;;;4129223;28;20050;-62
2023/11/01 09:43:33;;;;;;;2.22;0.80;;;14.50;99.90;;;;;;4130778;28;20038;-61
2023/11/01 09:45:36;;;;;;;5.00;2.03;;;14.50;99.90;;;;;;4127912;28;20038;-62
2023/11/01 09:47:38;;;;;;;1.60;0.50;;;14.60;99.90;;;;;;4130205;28;20050;-63
2023/11/01 09:49:41;;;;;;;0.38;0.30;;;14.60;99.90;;;;;;4135340;28;20038;-63
2023/11/01 09:51:45;;;;;;;0.80;0.52;;;14.60;99.90;;;;;;4129703;28;20084;-63
2023/11/01 09:53:47;;;;;;;2.55;0.60;;;14.50;99.90;;;;;;4128791;28;20018;-63
2023/11/01 09:55:48;;;;;;;1.35;0.63;;;14.50;99.90;;;;;;4130451;28;20042;-62
2023/11/01 09:57:49;;;;;;;1.58;0.90;;;14.60;99.90;;;;;;4128801;28;20044;-62
2023/11/01 09:59:51;;;;;;;3.90;1.10;;;14.70;99.90;;;;;;4130105;28;20043;-62
2023/11/01 10:01:52;;;;;;;0.77;0.52;;;14.80;99.90;;;;;;4128118;28;20042;-61
2023/11/01 10:03:57;;;;;;;1.75;0.90;;;14.70;99.90;;;;;;4129523;28;20176;-62
2023/11/01 10:05:58;;;;;;;1.23;0.47;;;14.80;99.90;;;;;;4129281;28;20054;-62
2023/11/01 10:07:59;;;;;;;0.75;0.20;;;14.80;99.90;;;;;;4128432;28;20104;-62
2023/11/01 10:10:03;;;;;;;1.00;0.30;;;14.80;99.90;;;;;;4129664;28;20034;-63
2023/11/01 10:12:08;;;;;;;0.57;0.32;;;14.90;99.90;;;;;;4128806;28;20035;-62
2023/11/01 10:14:10;;;;;;;1.35;0.95;;;15.00;99.90;;;;;;4128937;28;20097;-63
2023/11/01 10:16:12;;;;;;;1.98;0.45;;;15.00;99.90;;;;;;4127870;28;20050;-61
2023/11/01 10:18:13;;;;;;;0.93;0.40;;;15.10;99.90;;;;;;4128954;28;20081;-62
2023/11/01 10:20:40;;;;;;;0.45;0.22;;;15.10;99.90;;;;;;4127288;28;20038;-61
2023/11/01 10:22:41;;;;;;;4.20;0.50;;;14.90;99.90;;;;;;4128489;28;20093;-61
2023/11/01 10:24:43;;;;;;;1.95;0.28;;;14.90;99.90;;;;;;4127934;28;20143;-62
2023/11/01 10:26:44;;;;;;;1.13;1.00;;;14.90;99.90;;;;;;4129497;28;20104;-62
2023/11/01 10:28:45;;;;;;;0.40;0.30;;;14.90;99.90;;;;;;4128468;28;20533;-64
2023/11/01 10:30:48;;;;;;;0.45;0.30;;;15.00;99.90;;;;;;4129402;28;20557;-61
2023/11/01 10:32:59;;;;;;;0.43;0.15;;;15.10;99.90;;;;;;4127802;28;20050;-62